sensor_id;sensor_type;location;lat;lon;timestamp;P1;P2;P0
53658;PMS5003;41524;35.624;139.698;2023-02-27T00:00:13;11.00;7.00;
53658;PMS5003;41524;35.624;139.698;2023-02-27T00:05:11;9.00;5.00;
53658;PMS5003;41524;35.624;139.698;2023-02-27T00:10:11;8.00;7.00;
53658;PMS5003;41524;35.624;139.698;2023-02-27T00:15:11;4.00;4.00;
53658;PMS5003;41524;35.624;139.698;2023-02-27T00:20:16;10.00;7.00;
53658;PMS5003;41524;35.624;139.698;2023-02-27T00:25:14;8.00;6.00;
53658;PMS5003;41524;35.624;139.698;2023-02-27T00:30:10;8.00;6.00;
53658;PMS5003;41524;35.624;139.698;2023-02-27T00:35:14;6.00;5.00;
53658;PMS5003;41524;35.624;139.698;2023-02-27T00:40:11;5.00;5.00;
53658;PMS5003;41524;35.624;139.698;2023-02-27T00:45:09;4.00;4.00;
53658;PMS5003;41524;35.624;139.698;2023-02-27T00:50:12;7.00;6.00;
53658;PMS5003;41524;35.624;139.698;2023-02-27T00:55:09;3.00;3.00;
53658;PMS5003;41524;35.624;139.698;2023-02-27T01:00:15;6.00;5.00;
53658;PMS5003;41524;35.624;139.698;2023-02-27T01:05:12;5.00;4.00;
53658;PMS5003;41524;35.624;139.698;2023-02-27T01:10:10;6.00;6.00;
53658;PMS5003;41524;35.624;139.698;2023-02-27T01:15:10;6.00;5.00;
53658;PMS5003;41524;35.624;139.698;2023-02-27T01:20:10;5.00;5.00;
53658;PMS5003;41524;35.624;139.698;2023-02-27T01:25:09;3.00;3.00;
53658;PMS5003;41524;35.624;139.698;2023-02-27T01:35:09;5.00;5.00;
53658;PMS5003;41524;35.624;139.698;2023-02-27T01:40:10;6.00;5.00;
53658;PMS5003;41524;35.624;139.698;2023-02-27T01:45:28;9.00;9.00;
53658;PMS5003;41524;35.624;139.698;2023-02-27T01:50:09;5.00;4.00;
53658;PMS5003;41524;35.624;139.698;2023-02-27T01:55:10;8.00;8.00;
53658;PMS5003;41524;35.624;139.698;2023-02-27T02:00:10;5.00;5.00;
53658;PMS5003;41524;35.624;139.698;2023-02-27T02:05:09;6.00;4.00;
53658;PMS5003;41524;35.624;139.698;2023-02-27T02:10:12;7.00;6.00;
53658;PMS5003;41524;35.624;139.698;2023-02-27T02:15:11;8.00;6.00;
53658;PMS5003;41524;35.624;139.698;2023-02-27T02:20:25;8.00;6.00;
53658;PMS5003;41524;35.624;139.698;2023-02-27T02:25:15;4.00;4.00;
53658;PMS5003;41524;35.624;139.698;2023-02-27T02:35:24;6.00;4.00;
53658;PMS5003;41524;35.624;139.698;2023-02-27T02:40:13;5.00;5.00;
53658;PMS5003;41524;35.624;139.698;2023-02-27T02:45:11;6.00;6.00;
53658;PMS5003;41524;35.624;139.698;2023-02-27T02:50:10;4.00;3.00;
53658;PMS5003;41524;35.624;139.698;2023-02-27T02:55:11;6.00;5.00;
53658;PMS5003;41524;35.624;139.698;2023-02-27T03:00:10;6.00;6.00;
53658;PMS5003;41524;35.624;139.698;2023-02-27T03:05:10;6.00;6.00;
53658;PMS5003;41524;35.624;139.698;2023-02-27T03:10:10;4.00;4.00;
53658;PMS5003;41524;35.624;139.698;2023-02-27T03:15:11;6.00;6.00;
53658;PMS5003;41524;35.624;139.698;2023-02-27T03:20:15;6.00;5.00;
53658;PMS5003;41524;35.624;139.698;2023-02-27T03:25:09;8.00;6.00;
53658;PMS5003;41524;35.624;139.698;2023-02-27T03:30:16;7.00;6.00;
53658;PMS5003;41524;35.624;139.698;2023-02-27T03:35:09;7.00;6.00;
53658;PMS5003;41524;35.624;139.698;2023-02-27T03:40:11;6.00;6.00;
53658;PMS5003;41524;35.624;139.698;2023-02-27T03:45:13;5.00;5.00;
53658;PMS5003;41524;35.624;139.698;2023-02-27T03:50:14;6.00;6.00;
53658;PMS5003;41524;35.624;139.698;2023-02-27T03:55:10;8.00;7.00;
53658;PMS5003;41524;35.624;139.698;2023-02-27T04:00:15;4.00;4.00;
53658;PMS5003;41524;35.624;139.698;2023-02-27T04:05:10;6.00;6.00;
53658;PMS5003;41524;35.624;139.698;2023-02-27T04:10:44;8.00;8.00;
53658;PMS5003;41524;35.624;139.698;2023-02-27T04:15:11;5.00;4.00;
53658;PMS5003;41524;35.624;139.698;2023-02-27T04:20:15;6.00;6.00;
53658;PMS5003;41524;35.624;139.698;2023-02-27T04:25:14;6.00;6.00;
53658;PMS5003;41524;35.624;139.698;2023-02-27T04:30:13;12.00;9.00;
53658;PMS5003;41524;35.624;139.698;2023-02-27T04:35:10;5.00;5.00;
53658;PMS5003;41524;35.624;139.698;2023-02-27T04:40:10;5.00;5.00;
53658;PMS5003;41524;35.624;139.698;2023-02-27T04:45:11;14.00;14.00;
53658;PMS5003;41524;35.624;139.698;2023-02-27T04:50:20;7.00;7.00;
53658;PMS5003;41524;35.624;139.698;2023-02-27T04:55:12;10.00;10.00;
53658;PMS5003;41524;35.624;139.698;2023-02-27T05:00:14;16.00;14.00;
53658;PMS5003;41524;35.624;139.698;2023-02-27T05:05:12;13.00;12.00;
53658;PMS5003;41524;35.624;139.698;2023-02-27T05:10:13;22.00;17.00;
53658;PMS5003;41524;35.624;139.698;2023-02-27T05:15:11;10.00;10.00;
53658;PMS5003;41524;35.624;139.698;2023-02-27T05:20:13;13.00;12.00;
53658;PMS5003;41524;35.624;139.698;2023-02-27T05:25:11;15.00;13.00;
53658;PMS5003;41524;35.624;139.698;2023-02-27T05:30:17;14.00;13.00;
53658;PMS5003;41524;35.624;139.698;2023-02-27T05:35:12;16.00;14.00;
53658;PMS5003;41524;35.624;139.698;2023-02-27T05:40:10;15.00;15.00;
53658;PMS5003;41524;35.624;139.698;2023-02-27T05:45:09;16.00;13.00;
53658;PMS5003;41524;35.624;139.698;2023-02-27T05:50:10;18.00;16.00;
53658;PMS5003;41524;35.624;139.698;2023-02-27T05:55:10;21.00;20.00;
53658;PMS5003;41524;35.624;139.698;2023-02-27T06:00:14;16.00;16.00;
53658;PMS5003;41524;35.624;139.698;2023-02-27T06:05:14;17.00;15.00;
53658;PMS5003;41524;35.624;139.698;2023-02-27T06:10:10;17.00;17.00;
53658;PMS5003;41524;35.624;139.698;2023-02-27T06:15:14;13.00;12.00;
53658;PMS5003;41524;35.624;139.698;2023-02-27T06:20:10;16.00;16.00;
53658;PMS5003;41524;35.624;139.698;2023-02-27T06:25:13;14.00;11.00;
53658;PMS5003;41524;35.624;139.698;2023-02-27T06:30:10;17.00;17.00;
53658;PMS5003;41524;35.624;139.698;2023-02-27T06:35:09;19.00;17.00;
53658;PMS5003;41524;35.624;139.698;2023-02-27T06:40:10;14.00;14.00;
53658;PMS5003;41524;35.624;139.698;2023-02-27T06:45:09;15.00;14.00;
53658;PMS5003;41524;35.624;139.698;2023-02-27T06:50:10;13.00;11.00;
53658;PMS5003;41524;35.624;139.698;2023-02-27T06:55:09;17.00;15.00;
53658;PMS5003;41524;35.624;139.698;2023-02-27T07:00:14;18.00;13.00;
53658;PMS5003;41524;35.624;139.698;2023-02-27T07:05:10;12.00;12.00;
53658;PMS5003;41524;35.624;139.698;2023-02-27T07:10:11;7.00;7.00;
53658;PMS5003;41524;35.624;139.698;2023-02-27T07:15:11;14.00;13.00;
53658;PMS5003;41524;35.624;139.698;2023-02-27T07:20:10;9.00;9.00;
53658;PMS5003;41524;35.624;139.698;2023-02-27T07:25:11;14.00;11.00;
53658;PMS5003;41524;35.624;139.698;2023-02-27T07:30:10;8.00;8.00;
53658;PMS5003;41524;35.624;139.698;2023-02-27T07:35:08;9.00;9.00;
53658;PMS5003;41524;35.624;139.698;2023-02-27T07:40:17;10.00;10.00;
53658;PMS5003;41524;35.624;139.698;2023-02-27T07:45:10;9.00;8.00;
53658;PMS5003;41524;35.624;139.698;2023-02-27T07:50:10;15.00;14.00;
53658;PMS5003;41524;35.624;139.698;2023-02-27T07:55:09;12.00;11.00;
53658;PMS5003;41524;35.624;139.698;2023-02-27T08:00:15;13.00;12.00;
53658;PMS5003;41524;35.624;139.698;2023-02-27T08:05:09;12.00;12.00;
53658;PMS5003;41524;35.624;139.698;2023-02-27T08:10:11;11.00;10.00;
53658;PMS5003;41524;35.624;139.698;2023-02-27T08:15:10;14.00;12.00;
53658;PMS5003;41524;35.624;139.698;2023-02-27T08:20:09;6.00;6.00;
53658;PMS5003;41524;35.624;139.698;2023-02-27T08:25:09;7.00;7.00;
53658;PMS5003;41524;35.624;139.698;2023-02-27T08:30:11;12.00;8.00;
53658;PMS5003;41524;35.624;139.698;2023-02-27T08:35:09;11.00;10.00;
53658;PMS5003;41524;35.624;139.698;2023-02-27T08:40:09;9.00;9.00;
53658;PMS5003;41524;35.624;139.698;2023-02-27T08:45:15;12.00;9.00;
53658;PMS5003;41524;35.624;139.698;2023-02-27T08:50:13;10.00;8.00;
53658;PMS5003;41524;35.624;139.698;2023-02-27T08:55:09;9.00;9.00;
53658;PMS5003;41524;35.624;139.698;2023-02-27T09:00:20;8.00;8.00;
53658;PMS5003;41524;35.624;139.698;2023-02-27T09:05:09;5.00;5.00;
53658;PMS5003;41524;35.624;139.698;2023-02-27T09:10:10;6.00;5.00;
53658;PMS5003;41524;35.624;139.698;2023-02-27T09:15:10;5.00;5.00;
53658;PMS5003;41524;35.624;139.698;2023-02-27T09:20:10;7.00;7.00;
53658;PMS5003;41524;35.624;139.698;2023-02-27T09:25:11;6.00;6.00;
53658;PMS5003;41524;35.624;139.698;2023-02-27T09:30:13;7.00;6.00;
53658;PMS5003;41524;35.624;139.698;2023-02-27T09:35:09;6.00;5.00;
53658;PMS5003;41524;35.624;139.698;2023-02-27T09:40:10;9.00;7.00;
53658;PMS5003;41524;35.624;139.698;2023-02-27T09:45:09;5.00;4.00;
53658;PMS5003;41524;35.624;139.698;2023-02-27T09:50:17;7.00;7.00;
53658;PMS5003;41524;35.624;139.698;2023-02-27T09:55:11;13.00;12.00;
53658;PMS5003;41524;35.624;139.698;2023-02-27T10:00:28;5.00;5.00;
53658;PMS5003;41524;35.624;139.698;2023-02-27T10:05:17;8.00;6.00;
53658;PMS5003;41524;35.624;139.698;2023-02-27T10:10:17;8.00;7.00;
53658;PMS5003;41524;35.624;139.698;2023-02-27T10:15:10;5.00;5.00;
53658;PMS5003;41524;35.624;139.698;2023-02-27T10:20:21;7.00;7.00;
53658;PMS5003;41524;35.624;139.698;2023-02-27T10:25:11;10.00;9.00;
53658;PMS5003;41524;35.624;139.698;2023-02-27T10:30:16;8.00;7.00;
53658;PMS5003;41524;35.624;139.698;2023-02-27T10:35:11;11.00;9.00;
53658;PMS5003;41524;35.624;139.698;2023-02-27T10:40:14;7.00;6.00;
53658;PMS5003;41524;35.624;139.698;2023-02-27T10:45:11;11.00;10.00;
53658;PMS5003;41524;35.624;139.698;2023-02-27T10:50:30;8.00;8.00;
53658;PMS5003;41524;35.624;139.698;2023-02-27T10:55:16;9.00;9.00;
53658;PMS5003;41524;35.624;139.698;2023-02-27T11:00:21;8.00;8.00;
53658;PMS5003;41524;35.624;139.698;2023-02-27T11:05:17;10.00;10.00;
53658;PMS5003;41524;35.624;139.698;2023-02-27T11:10:15;9.00;9.00;
53658;PMS5003;41524;35.624;139.698;2023-02-27T11:15:21;11.00;10.00;
53658;PMS5003;41524;35.624;139.698;2023-02-27T11:20:30;15.00;10.00;
53658;PMS5003;41524;35.624;139.698;2023-02-27T11:25:15;18.00;15.00;
53658;PMS5003;41524;35.624;139.698;2023-02-27T11:30:19;18.00;15.00;
53658;PMS5003;41524;35.624;139.698;2023-02-27T11:35:19;15.00;15.00;
53658;PMS5003;41524;35.624;139.698;2023-02-27T11:40:14;15.00;15.00;
53658;PMS5003;41524;35.624;139.698;2023-02-27T11:45:21;16.00;12.00;
53658;PMS5003;41524;35.624;139.698;2023-02-27T11:50:51;14.00;13.00;
53658;PMS5003;41524;35.624;139.698;2023-02-27T11:55:09;11.00;11.00;
53658;PMS5003;41524;35.624;139.698;2023-02-27T12:00:17;24.00;22.00;
53658;PMS5003;41524;35.624;139.698;2023-02-27T12:05:11;14.00;12.00;
53658;PMS5003;41524;35.624;139.698;2023-02-27T12:10:10;10.00;10.00;
53658;PMS5003;41524;35.624;139.698;2023-02-27T12:15:14;13.00;12.00;
53658;PMS5003;41524;35.624;139.698;2023-02-27T12:20:38;18.00;15.00;
53658;PMS5003;41524;35.624;139.698;2023-02-27T12:25:17;11.00;10.00;
53658;PMS5003;41524;35.624;139.698;2023-02-27T12:30:12;16.00;14.00;
53658;PMS5003;41524;35.624;139.698;2023-02-27T12:35:11;11.00;8.00;
53658;PMS5003;41524;35.624;139.698;2023-02-27T12:40:12;14.00;12.00;
53658;PMS5003;41524;35.624;139.698;2023-02-27T12:45:19;11.00;10.00;
53658;PMS5003;41524;35.624;139.698;2023-02-27T12:50:15;14.00;14.00;
53658;PMS5003;41524;35.624;139.698;2023-02-27T12:55:15;13.00;11.00;
53658;PMS5003;41524;35.624;139.698;2023-02-27T13:00:14;15.00;14.00;
53658;PMS5003;41524;35.624;139.698;2023-02-27T13:05:13;12.00;11.00;
53658;PMS5003;41524;35.624;139.698;2023-02-27T13:10:10;12.00;11.00;
53658;PMS5003;41524;35.624;139.698;2023-02-27T13:15:14;10.00;10.00;
53658;PMS5003;41524;35.624;139.698;2023-02-27T13:20:25;9.00;9.00;
53658;PMS5003;41524;35.624;139.698;2023-02-27T13:25:14;11.00;10.00;
53658;PMS5003;41524;35.624;139.698;2023-02-27T13:30:13;11.00;10.00;
53658;PMS5003;41524;35.624;139.698;2023-02-27T13:35:27;11.00;10.00;
53658;PMS5003;41524;35.624;139.698;2023-02-27T13:45:45;10.00;9.00;
53658;PMS5003;41524;35.624;139.698;2023-02-27T13:55:24;11.00;10.00;
53658;PMS5003;41524;35.624;139.698;2023-02-27T14:00:16;11.00;10.00;
53658;PMS5003;41524;35.624;139.698;2023-02-27T14:05:09;19.00;15.00;
53658;PMS5003;41524;35.624;139.698;2023-02-27T14:10:09;13.00;11.00;
53658;PMS5003;41524;35.624;139.698;2023-02-27T14:15:47;17.00;14.00;
53658;PMS5003;41524;35.624;139.698;2023-02-27T14:20:10;11.00;10.00;
53658;PMS5003;41524;35.624;139.698;2023-02-27T14:25:16;14.00;13.00;
53658;PMS5003;41524;35.624;139.698;2023-02-27T14:30:21;22.00;20.00;
53658;PMS5003;41524;35.624;139.698;2023-02-27T14:40:14;19.00;15.00;
53658;PMS5003;41524;35.624;139.698;2023-02-27T14:45:12;15.00;12.00;
53658;PMS5003;41524;35.624;139.698;2023-02-27T14:50:20;12.00;11.00;
53658;PMS5003;41524;35.624;139.698;2023-02-27T14:55:13;13.00;12.00;
53658;PMS5003;41524;35.624;139.698;2023-02-27T15:00:27;13.00;12.00;
53658;PMS5003;41524;35.624;139.698;2023-02-27T15:05:13;15.00;14.00;
53658;PMS5003;41524;35.624;139.698;2023-02-27T15:10:16;14.00;14.00;
53658;PMS5003;41524;35.624;139.698;2023-02-27T15:15:20;13.00;13.00;
53658;PMS5003;41524;35.624;139.698;2023-02-27T15:20:21;15.00;13.00;
53658;PMS5003;41524;35.624;139.698;2023-02-27T15:25:24;15.00;14.00;
53658;PMS5003;41524;35.624;139.698;2023-02-27T15:30:17;15.00;15.00;
53658;PMS5003;41524;35.624;139.698;2023-02-27T15:35:15;16.00;14.00;
53658;PMS5003;41524;35.624;139.698;2023-02-27T15:40:10;20.00;17.00;
53658;PMS5003;41524;35.624;139.698;2023-02-27T15:45:09;16.00;15.00;
53658;PMS5003;41524;35.624;139.698;2023-02-27T15:50:10;21.00;18.00;
53658;PMS5003;41524;35.624;139.698;2023-02-27T15:55:12;21.00;18.00;
53658;PMS5003;41524;35.624;139.698;2023-02-27T16:00:19;24.00;21.00;
53658;PMS5003;41524;35.624;139.698;2023-02-27T16:05:14;15.00;14.00;
53658;PMS5003;41524;35.624;139.698;2023-02-27T16:10:15;16.00;16.00;
53658;PMS5003;41524;35.624;139.698;2023-02-27T16:15:21;20.00;19.00;
53658;PMS5003;41524;35.624;139.698;2023-02-27T16:20:25;15.00;15.00;
53658;PMS5003;41524;35.624;139.698;2023-02-27T16:25:17;16.00;13.00;
53658;PMS5003;41524;35.624;139.698;2023-02-27T16:30:10;20.00;16.00;
53658;PMS5003;41524;35.624;139.698;2023-02-27T16:35:16;25.00;23.00;
53658;PMS5003;41524;35.624;139.698;2023-02-27T16:40:13;18.00;14.00;
53658;PMS5003;41524;35.624;139.698;2023-02-27T16:45:12;17.00;14.00;
53658;PMS5003;41524;35.624;139.698;2023-02-27T16:50:14;21.00;21.00;
53658;PMS5003;41524;35.624;139.698;2023-02-27T16:55:09;18.00;16.00;
53658;PMS5003;41524;35.624;139.698;2023-02-27T17:00:10;17.00;13.00;
53658;PMS5003;41524;35.624;139.698;2023-02-27T17:05:09;17.00;14.00;
53658;PMS5003;41524;35.624;139.698;2023-02-27T17:10:11;25.00;21.00;
53658;PMS5003;41524;35.624;139.698;2023-02-27T17:15:09;21.00;20.00;
53658;PMS5003;41524;35.624;139.698;2023-02-27T17:20:10;24.00;23.00;
53658;PMS5003;41524;35.624;139.698;2023-02-27T17:25:16;29.00;28.00;
53658;PMS5003;41524;35.624;139.698;2023-02-27T17:30:09;23.00;21.00;
53658;PMS5003;41524;35.624;139.698;2023-02-27T17:35:09;27.00;25.00;
53658;PMS5003;41524;35.624;139.698;2023-02-27T17:40:10;19.00;16.00;
53658;PMS5003;41524;35.624;139.698;2023-02-27T17:45:09;21.00;20.00;
53658;PMS5003;41524;35.624;139.698;2023-02-27T17:50:09;24.00;21.00;
53658;PMS5003;41524;35.624;139.698;2023-02-27T17:55:10;20.00;19.00;
53658;PMS5003;41524;35.624;139.698;2023-02-27T18:00:11;19.00;17.00;
53658;PMS5003;41524;35.624;139.698;2023-02-27T18:05:09;19.00;16.00;
53658;PMS5003;41524;35.624;139.698;2023-02-27T18:10:15;32.00;29.00;
53658;PMS5003;41524;35.624;139.698;2023-02-27T18:15:09;21.00;20.00;
53658;PMS5003;41524;35.624;139.698;2023-02-27T18:20:09;31.00;29.00;
53658;PMS5003;41524;35.624;139.698;2023-02-27T18:25:09;31.00;24.00;
53658;PMS5003;41524;35.624;139.698;2023-02-27T18:30:09;30.00;28.00;
53658;PMS5003;41524;35.624;139.698;2023-02-27T18:35:09;31.00;27.00;
53658;PMS5003;41524;35.624;139.698;2023-02-27T18:40:09;29.00;24.00;
53658;PMS5003;41524;35.624;139.698;2023-02-27T18:45:10;29.00;26.00;
53658;PMS5003;41524;35.624;139.698;2023-02-27T18:50:10;21.00;19.00;
53658;PMS5003;41524;35.624;139.698;2023-02-27T18:55:09;32.00;31.00;
53658;PMS5003;41524;35.624;139.698;2023-02-27T19:00:12;23.00;23.00;
53658;PMS5003;41524;35.624;139.698;2023-02-27T19:05:10;22.00;22.00;
53658;PMS5003;41524;35.624;139.698;2023-02-27T19:10:09;26.00;24.00;
53658;PMS5003;41524;35.624;139.698;2023-02-27T19:15:10;23.00;21.00;
53658;PMS5003;41524;35.624;139.698;2023-02-27T19:20:09;23.00;19.00;
53658;PMS5003;41524;35.624;139.698;2023-02-27T19:25:09;27.00;19.00;
53658;PMS5003;41524;35.624;139.698;2023-02-27T19:30:12;26.00;24.00;
53658;PMS5003;41524;35.624;139.698;2023-02-27T19:35:09;25.00;19.00;
53658;PMS5003;41524;35.624;139.698;2023-02-27T19:40:13;32.00;30.00;
53658;PMS5003;41524;35.624;139.698;2023-02-27T19:45:09;27.00;27.00;
53658;PMS5003;41524;35.624;139.698;2023-02-27T19:50:09;24.00;20.00;
53658;PMS5003;41524;35.624;139.698;2023-02-27T19:55:09;29.00;23.00;
53658;PMS5003;41524;35.624;139.698;2023-02-27T20:00:17;29.00;26.00;
53658;PMS5003;41524;35.624;139.698;2023-02-27T20:05:09;24.00;21.00;
53658;PMS5003;41524;35.624;139.698;2023-02-27T20:10:10;27.00;22.00;
53658;PMS5003;41524;35.624;139.698;2023-02-27T20:15:09;25.00;21.00;
53658;PMS5003;41524;35.624;139.698;2023-02-27T20:20:11;28.00;25.00;
53658;PMS5003;41524;35.624;139.698;2023-02-27T20:25:10;28.00;22.00;
53658;PMS5003;41524;35.624;139.698;2023-02-27T20:30:09;30.00;30.00;
53658;PMS5003;41524;35.624;139.698;2023-02-27T20:35:09;22.00;20.00;
53658;PMS5003;41524;35.624;139.698;2023-02-27T20:40:09;32.00;30.00;
53658;PMS5003;41524;35.624;139.698;2023-02-27T20:45:09;22.00;19.00;
53658;PMS5003;41524;35.624;139.698;2023-02-27T20:50:10;22.00;22.00;
53658;PMS5003;41524;35.624;139.698;2023-02-27T20:55:10;24.00;21.00;
53658;PMS5003;41524;35.624;139.698;2023-02-27T21:00:10;28.00;28.00;
53658;PMS5003;41524;35.624;139.698;2023-02-27T21:05:11;25.00;22.00;
53658;PMS5003;41524;35.624;139.698;2023-02-27T21:10:10;34.00;28.00;
53658;PMS5003;41524;35.624;139.698;2023-02-27T21:15:11;29.00;28.00;
53658;PMS5003;41524;35.624;139.698;2023-02-27T21:20:10;26.00;23.00;
53658;PMS5003;41524;35.624;139.698;2023-02-27T21:25:10;27.00;26.00;
53658;PMS5003;41524;35.624;139.698;2023-02-27T21:30:09;26.00;25.00;
53658;PMS5003;41524;35.624;139.698;2023-02-27T21:35:10;30.00;27.00;
53658;PMS5003;41524;35.624;139.698;2023-02-27T21:40:10;28.00;24.00;
53658;PMS5003;41524;35.624;139.698;2023-02-27T21:45:14;28.00;28.00;
53658;PMS5003;41524;35.624;139.698;2023-02-27T21:50:11;25.00;23.00;
53658;PMS5003;41524;35.624;139.698;2023-02-27T21:55:12;34.00;30.00;
53658;PMS5003;41524;35.624;139.698;2023-02-27T22:00:14;26.00;23.00;
53658;PMS5003;41524;35.624;139.698;2023-02-27T22:05:09;26.00;24.00;
53658;PMS5003;41524;35.624;139.698;2023-02-27T22:10:09;32.00;26.00;
53658;PMS5003;41524;35.624;139.698;2023-02-27T22:15:14;22.00;22.00;
53658;PMS5003;41524;35.624;139.698;2023-02-27T22:20:12;23.00;20.00;
53658;PMS5003;41524;35.624;139.698;2023-02-27T22:25:10;29.00;26.00;
53658;PMS5003;41524;35.624;139.698;2023-02-27T22:30:11;20.00;20.00;
53658;PMS5003;41524;35.624;139.698;2023-02-27T22:35:09;27.00;26.00;
53658;PMS5003;41524;35.624;139.698;2023-02-27T22:40:09;23.00;21.00;
53658;PMS5003;41524;35.624;139.698;2023-02-27T22:45:15;27.00;22.00;
53658;PMS5003;41524;35.624;139.698;2023-02-27T22:50:10;28.00;23.00;
53658;PMS5003;41524;35.624;139.698;2023-02-27T22:55:09;22.00;20.00;
53658;PMS5003;41524;35.624;139.698;2023-02-27T23:00:14;32.00;30.00;
53658;PMS5003;41524;35.624;139.698;2023-02-27T23:05:10;84.00;80.00;
53658;PMS5003;41524;35.624;139.698;2023-02-27T23:10:11;33.00;30.00;
53658;PMS5003;41524;35.624;139.698;2023-02-27T23:15:09;29.00;28.00;
53658;PMS5003;41524;35.624;139.698;2023-02-27T23:20:14;25.00;23.00;
53658;PMS5003;41524;35.624;139.698;2023-02-27T23:25:17;30.00;28.00;
53658;PMS5003;41524;35.624;139.698;2023-02-27T23:30:12;24.00;24.00;
53658;PMS5003;41524;35.624;139.698;2023-02-27T23:35:09;28.00;25.00;
53658;PMS5003;41524;35.624;139.698;2023-02-27T23:40:10;27.00;26.00;
53658;PMS5003;41524;35.624;139.698;2023-02-27T23:45:10;39.00;35.00;
53658;PMS5003;41524;35.624;139.698;2023-02-27T23:50:11;32.00;30.00;
53658;PMS5003;41524;35.624;139.698;2023-02-27T23:55:10;38.00;30.00;
